sensor_id;sensor_type;location;lat;lon;timestamp;P1;durP1;ratioP1;P2;durP2;ratioP2
14708;SDS011;7445;50.774;4.944;2023-07-13T06:48:57;10.27;;;4.13;;
14708;SDS011;7445;50.774;4.944;2023-07-13T06:51:52;10.03;;;4.50;;
14708;SDS011;7445;50.774;4.944;2023-07-13T06:54:21;9.27;;;4.87;;
14708;SDS011;7445;50.774;4.944;2023-07-13T06:56:46;10.67;;;4.63;;
14708;SDS011;7445;50.774;4.944;2023-07-13T06:59:14;11.10;;;4.07;;
14708;SDS011;7445;50.774;4.944;2023-07-13T07:01:40;7.70;;;4.27;;
14708;SDS011;7445;50.774;4.944;2023-07-13T07:04:05;10.23;;;3.73;;
14708;SDS011;7445;50.774;4.944;2023-07-13T07:06:31;14.13;;;4.10;;
14708;SDS011;7445;50.774;4.944;2023-07-13T07:08:56;11.03;;;4.67;;
14708;SDS011;7445;50.774;4.944;2023-07-13T07:11:24;10.93;;;4.17;;
14708;SDS011;7445;50.774;4.944;2023-07-13T07:13:52;10.80;;;4.83;;
14708;SDS011;7445;50.774;4.944;2023-07-13T07:16:19;9.07;;;3.47;;
14708;SDS011;7445;50.774;4.944;2023-07-13T07:18:45;9.23;;;4.60;;
14708;SDS011;7445;50.774;4.944;2023-07-13T07:21:17;8.33;;;4.37;;
14708;SDS011;7445;50.774;4.944;2023-07-13T07:23:44;10.77;;;4.30;;
14708;SDS011;7445;50.774;4.944;2023-07-13T07:26:10;9.03;;;4.27;;
14708;SDS011;7445;50.774;4.944;2023-07-13T07:28:37;8.47;;;4.67;;
14708;SDS011;7445;50.774;4.944;2023-07-13T07:33:47;14.20;;;5.30;;
14708;SDS011;7445;50.774;4.944;2023-07-13T07:36:16;11.87;;;4.50;;
14708;SDS011;7445;50.774;4.944;2023-07-13T07:38:49;7.70;;;4.37;;
14708;SDS011;7445;50.774;4.944;2023-07-13T07:41:20;19.37;;;4.50;;
14708;SDS011;7445;50.774;4.944;2023-07-13T07:43:47;11.57;;;4.27;;
14708;SDS011;7445;50.774;4.944;2023-07-13T07:46:13;7.97;;;4.13;;
14708;SDS011;7445;50.774;4.944;2023-07-13T07:48:38;8.60;;;3.97;;
14708;SDS011;7445;50.774;4.944;2023-07-13T07:51:04;8.80;;;4.47;;
14708;SDS011;7445;50.774;4.944;2023-07-13T07:53:30;5.63;;;2.83;;
14708;SDS011;7445;50.774;4.944;2023-07-13T07:55:55;12.53;;;3.87;;
14708;SDS011;7445;50.774;4.944;2023-07-13T07:58:21;5.80;;;3.40;;
14708;SDS011;7445;50.774;4.944;2023-07-13T08:00:46;7.93;;;3.23;;
14708;SDS011;7445;50.774;4.944;2023-07-13T08:03:12;9.77;;;4.10;;
14708;SDS011;7445;50.774;4.944;2023-07-13T08:05:38;8.13;;;3.80;;
14708;SDS011;7445;50.774;4.944;2023-07-13T08:08:03;10.63;;;3.40;;
14708;SDS011;7445;50.774;4.944;2023-07-13T08:10:30;9.00;;;3.67;;
14708;SDS011;7445;50.774;4.944;2023-07-13T08:13:00;8.43;;;3.47;;
14708;SDS011;7445;50.774;4.944;2023-07-13T08:15:26;11.07;;;3.40;;
14708;SDS011;7445;50.774;4.944;2023-07-13T08:17:52;10.87;;;3.90;;
14708;SDS011;7445;50.774;4.944;2023-07-13T08:20:19;9.37;;;3.97;;
14708;SDS011;7445;50.774;4.944;2023-07-13T08:22:45;5.33;;;3.27;;
14708;SDS011;7445;50.774;4.944;2023-07-13T08:25:14;8.53;;;4.00;;
14708;SDS011;7445;50.774;4.944;2023-07-13T08:27:39;6.50;;;3.70;;
14708;SDS011;7445;50.774;4.944;2023-07-13T08:30:05;8.13;;;3.57;;
14708;SDS011;7445;50.774;4.944;2023-07-13T08:32:33;10.93;;;3.77;;
14708;SDS011;7445;50.774;4.944;2023-07-13T08:34:58;11.03;;;4.43;;
14708;SDS011;7445;50.774;4.944;2023-07-13T08:37:24;6.43;;;3.83;;
14708;SDS011;7445;50.774;4.944;2023-07-13T08:39:51;6.37;;;3.00;;
14708;SDS011;7445;50.774;4.944;2023-07-13T08:42:31;5.40;;;2.80;;
14708;SDS011;7445;50.774;4.944;2023-07-13T08:45:11;5.77;;;2.90;;
14708;SDS011;7445;50.774;4.944;2023-07-13T08:47:46;8.83;;;3.93;;
14708;SDS011;7445;50.774;4.944;2023-07-13T08:53:38;5.50;;;2.28;;
14708;SDS011;7445;50.774;4.944;2023-07-13T08:56:13;6.78;;;3.38;;
14708;SDS011;7445;50.774;4.944;2023-07-13T08:58:44;9.18;;;4.30;;
14708;SDS011;7445;50.774;4.944;2023-07-13T09:01:15;11.63;;;4.28;;
14708;SDS011;7445;50.774;4.944;2023-07-13T09:04:16;6.45;;;2.92;;
14708;SDS011;7445;50.774;4.944;2023-07-13T09:09:50;8.82;;;3.88;;
14708;SDS011;7445;50.774;4.944;2023-07-13T09:12:51;7.35;;;3.60;;
14708;SDS011;7445;50.774;4.944;2023-07-13T09:15:53;7.77;;;3.33;;
14708;SDS011;7445;50.774;4.944;2023-07-13T09:23:44;10.77;;;2.95;;
14708;SDS011;7445;50.774;4.944;2023-07-13T09:26:17;8.10;;;3.78;;
14708;SDS011;7445;50.774;4.944;2023-07-13T09:28:51;4.78;;;2.70;;
14708;SDS011;7445;50.774;4.944;2023-07-13T09:31:33;8.25;;;2.92;;
14708;SDS011;7445;50.774;4.944;2023-07-13T09:34:08;4.97;;;2.80;;
14708;SDS011;7445;50.774;4.944;2023-07-13T09:36:39;4.90;;;2.45;;
14708;SDS011;7445;50.774;4.944;2023-07-13T09:44:54;4.57;;;2.53;;
14708;SDS011;7445;50.774;4.944;2023-07-13T09:47:29;3.90;;;2.53;;
14708;SDS011;7445;50.774;4.944;2023-07-13T09:49:59;5.22;;;2.92;;
14708;SDS011;7445;50.774;4.944;2023-07-13T09:52:27;3.85;;;2.78;;
14708;SDS011;7445;50.774;4.944;2023-07-13T10:00:57;3.70;;;2.00;;
14708;SDS011;7445;50.774;4.944;2023-07-13T10:03:30;6.82;;;2.63;;
14708;SDS011;7445;50.774;4.944;2023-07-13T10:06:16;6.15;;;2.45;;
14708;SDS011;7445;50.774;4.944;2023-07-13T10:08:49;3.83;;;1.90;;
14708;SDS011;7445;50.774;4.944;2023-07-13T10:11:19;6.95;;;2.95;;
14708;SDS011;7445;50.774;4.944;2023-07-13T10:13:57;3.15;;;2.53;;
14708;SDS011;7445;50.774;4.944;2023-07-13T10:16:34;6.15;;;2.55;;
14708;SDS011;7445;50.774;4.944;2023-07-13T10:19:09;4.15;;;2.20;;
14708;SDS011;7445;50.774;4.944;2023-07-13T10:24:29;6.53;;;2.72;;
14708;SDS011;7445;50.774;4.944;2023-07-13T10:27:17;9.68;;;2.45;;
14708;SDS011;7445;50.774;4.944;2023-07-13T10:32:34;8.88;;;2.20;;
14708;SDS011;7445;50.774;4.944;2023-07-13T10:35:02;5.03;;;2.58;;
14708;SDS011;7445;50.774;4.944;2023-07-13T10:37:31;7.82;;;2.85;;
14708;SDS011;7445;50.774;4.944;2023-07-13T10:40:12;5.25;;;3.00;;
14708;SDS011;7445;50.774;4.944;2023-07-13T10:42:47;6.25;;;2.85;;
14708;SDS011;7445;50.774;4.944;2023-07-13T10:45:19;3.80;;;2.83;;
14708;SDS011;7445;50.774;4.944;2023-07-13T10:47:49;5.68;;;2.30;;
14708;SDS011;7445;50.774;4.944;2023-07-13T10:50:20;8.07;;;2.53;;
14708;SDS011;7445;50.774;4.944;2023-07-13T10:52:55;4.90;;;3.10;;
14708;SDS011;7445;50.774;4.944;2023-07-13T10:58:24;5.70;;;2.40;;
14708;SDS011;7445;50.774;4.944;2023-07-13T11:01:08;3.13;;;2.20;;
14708;SDS011;7445;50.774;4.944;2023-07-13T11:03:46;6.25;;;2.65;;
14708;SDS011;7445;50.774;4.944;2023-07-13T11:24:28;5.18;;;2.58;;
14708;SDS011;7445;50.774;4.944;2023-07-13T11:33:03;4.78;;;2.05;;
14708;SDS011;7445;50.774;4.944;2023-07-13T11:35:41;5.93;;;1.90;;
14708;SDS011;7445;50.774;4.944;2023-07-13T11:38:21;4.50;;;2.53;;
14708;SDS011;7445;50.774;4.944;2023-07-13T11:41:06;2.10;;;1.90;;
14708;SDS011;7445;50.774;4.944;2023-07-13T11:43:33;6.53;;;1.92;;
14708;SDS011;7445;50.774;4.944;2023-07-13T11:46:11;4.57;;;2.20;;
14708;SDS011;7445;50.774;4.944;2023-07-13T11:48:40;3.30;;;1.80;;
14708;SDS011;7445;50.774;4.944;2023-07-13T11:51:13;6.45;;;2.83;;
14708;SDS011;7445;50.774;4.944;2023-07-13T11:53:51;3.38;;;1.77;;
14708;SDS011;7445;50.774;4.944;2023-07-13T11:56:19;2.65;;;1.70;;
14708;SDS011;7445;50.774;4.944;2023-07-13T11:58:48;4.90;;;1.98;;
14708;SDS011;7445;50.774;4.944;2023-07-13T12:01:19;3.85;;;2.30;;
14708;SDS011;7445;50.774;4.944;2023-07-13T12:03:46;2.22;;;1.58;;
14708;SDS011;7445;50.774;4.944;2023-07-13T12:06:33;3.33;;;1.90;;
14708;SDS011;7445;50.774;4.944;2023-07-13T12:09:11;3.30;;;1.48;;
14708;SDS011;7445;50.774;4.944;2023-07-13T12:11:41;3.45;;;2.10;;
14708;SDS011;7445;50.774;4.944;2023-07-13T12:14:14;4.57;;;2.03;;
14708;SDS011;7445;50.774;4.944;2023-07-13T12:16:41;4.68;;;1.90;;
14708;SDS011;7445;50.774;4.944;2023-07-13T12:19:14;2.72;;;1.95;;
14708;SDS011;7445;50.774;4.944;2023-07-13T12:21:46;2.25;;;1.75;;
14708;SDS011;7445;50.774;4.944;2023-07-13T12:24:15;2.95;;;1.70;;
14708;SDS011;7445;50.774;4.944;2023-07-13T12:26:55;5.32;;;2.03;;
14708;SDS011;7445;50.774;4.944;2023-07-13T12:29:33;3.88;;;1.90;;
14708;SDS011;7445;50.774;4.944;2023-07-13T12:32:24;2.10;;;1.27;;
14708;SDS011;7445;50.774;4.944;2023-07-13T12:34:52;4.13;;;1.73;;
14708;SDS011;7445;50.774;4.944;2023-07-13T12:37:33;2.40;;;1.40;;
14708;SDS011;7445;50.774;4.944;2023-07-13T12:40:00;2.55;;;1.90;;
14708;SDS011;7445;50.774;4.944;2023-07-13T12:42:31;2.65;;;1.30;;
14708;SDS011;7445;50.774;4.944;2023-07-13T12:44:58;2.00;;;1.60;;
14708;SDS011;7445;50.774;4.944;2023-07-13T12:47:44;1.05;;;1.00;;
14708;SDS011;7445;50.774;4.944;2023-07-13T12:50:19;3.55;;;2.00;;
14708;SDS011;7445;50.774;4.944;2023-07-13T12:52:52;2.58;;;1.70;;
14708;SDS011;7445;50.774;4.944;2023-07-13T12:55:20;3.13;;;2.20;;
14708;SDS011;7445;50.774;4.944;2023-07-13T12:57:56;2.42;;;1.58;;
14708;SDS011;7445;50.774;4.944;2023-07-13T13:00:59;2.58;;;1.27;;
14708;SDS011;7445;50.774;4.944;2023-07-13T13:05:46;3.67;;;2.05;;
14708;SDS011;7445;50.774;4.944;2023-07-13T13:08:12;2.70;;;1.30;;
14708;SDS011;7445;50.774;4.944;2023-07-13T13:10:40;2.50;;;1.30;;
14708;SDS011;7445;50.774;4.944;2023-07-13T13:13:07;2.20;;;1.17;;
14708;SDS011;7445;50.774;4.944;2023-07-13T13:15:39;2.20;;;1.30;;
14708;SDS011;7445;50.774;4.944;2023-07-13T13:18:10;1.83;;;1.67;;
14708;SDS011;7445;50.774;4.944;2023-07-13T13:20:42;5.05;;;2.35;;
14708;SDS011;7445;50.774;4.944;2023-07-13T13:23:15;3.13;;;1.67;;
14708;SDS011;7445;50.774;4.944;2023-07-13T13:25:44;2.88;;;1.58;;
14708;SDS011;7445;50.774;4.944;2023-07-13T13:28:17;5.47;;;2.00;;
14708;SDS011;7445;50.774;4.944;2023-07-13T13:30:48;3.65;;;1.88;;
14708;SDS011;7445;50.774;4.944;2023-07-13T13:33:16;2.10;;;1.63;;
14708;SDS011;7445;50.774;4.944;2023-07-13T13:35:45;5.18;;;2.00;;
14708;SDS011;7445;50.774;4.944;2023-07-13T13:38:15;1.50;;;1.40;;
14708;SDS011;7445;50.774;4.944;2023-07-13T13:40:47;4.25;;;1.70;;
14708;SDS011;7445;50.774;4.944;2023-07-13T13:43:23;5.97;;;2.90;;
14708;SDS011;7445;50.774;4.944;2023-07-13T13:45:55;5.90;;;2.42;;
14708;SDS011;7445;50.774;4.944;2023-07-13T13:48:33;3.72;;;1.95;;
14708;SDS011;7445;50.774;4.944;2023-07-13T13:51:03;3.90;;;2.22;;
14708;SDS011;7445;50.774;4.944;2023-07-13T13:53:43;2.92;;;2.13;;
14708;SDS011;7445;50.774;4.944;2023-07-13T13:56:12;2.22;;;2.03;;
14708;SDS011;7445;50.774;4.944;2023-07-13T13:58:42;2.67;;;1.88;;
14708;SDS011;7445;50.774;4.944;2023-07-13T14:01:13;4.57;;;1.80;;
14708;SDS011;7445;50.774;4.944;2023-07-13T14:03:42;3.20;;;1.77;;
14708;SDS011;7445;50.774;4.944;2023-07-13T14:06:12;1.98;;;1.70;;
14708;SDS011;7445;50.774;4.944;2023-07-13T14:08:39;2.08;;;1.88;;
14708;SDS011;7445;50.774;4.944;2023-07-13T14:11:05;3.13;;;2.28;;
14708;SDS011;7445;50.774;4.944;2023-07-13T14:13:44;3.30;;;2.53;;
14708;SDS011;7445;50.774;4.944;2023-07-13T14:16:17;3.25;;;1.80;;
14708;SDS011;7445;50.774;4.944;2023-07-13T14:18:45;2.45;;;1.80;;
14708;SDS011;7445;50.774;4.944;2023-07-13T14:21:16;4.05;;;2.33;;
14708;SDS011;7445;50.774;4.944;2023-07-13T14:23:44;3.03;;;2.15;;
14708;SDS011;7445;50.774;4.944;2023-07-13T14:26:11;3.55;;;2.03;;
14708;SDS011;7445;50.774;4.944;2023-07-13T14:28:44;5.55;;;1.92;;
14708;SDS011;7445;50.774;4.944;2023-07-13T14:31:15;3.35;;;1.70;;
14708;SDS011;7445;50.774;4.944;2023-07-13T14:33:42;6.53;;;2.05;;
14708;SDS011;7445;50.774;4.944;2023-07-13T14:36:15;4.43;;;2.30;;
14708;SDS011;7445;50.774;4.944;2023-07-13T14:38:55;1.92;;;1.80;;
14708;SDS011;7445;50.774;4.944;2023-07-13T14:41:22;2.50;;;2.28;;
14708;SDS011;7445;50.774;4.944;2023-07-13T14:43:50;3.22;;;1.60;;
14708;SDS011;7445;50.774;4.944;2023-07-13T14:46:28;3.83;;;1.95;;
14708;SDS011;7445;50.774;4.944;2023-07-13T14:49:01;4.45;;;3.22;;
14708;SDS011;7445;50.774;4.944;2023-07-13T14:51:31;3.70;;;1.95;;
14708;SDS011;7445;50.774;4.944;2023-07-13T14:54:03;6.47;;;2.95;;
14708;SDS011;7445;50.774;4.944;2023-07-13T14:56:30;2.25;;;2.05;;
14708;SDS011;7445;50.774;4.944;2023-07-13T14:58:56;3.20;;;1.88;;
14708;SDS011;7445;50.774;4.944;2023-07-13T15:01:22;1.67;;;1.58;;
14708;SDS011;7445;50.774;4.944;2023-07-13T15:03:49;2.65;;;1.60;;
14708;SDS011;7445;50.774;4.944;2023-07-13T15:06:17;1.98;;;1.45;;
14708;SDS011;7445;50.774;4.944;2023-07-13T15:08:44;3.70;;;2.15;;
14708;SDS011;7445;50.774;4.944;2023-07-13T15:11:11;3.53;;;1.80;;
14708;SDS011;7445;50.774;4.944;2023-07-13T15:13:37;2.10;;;1.38;;
14708;SDS011;7445;50.774;4.944;2023-07-13T15:16:04;3.30;;;1.92;;
14708;SDS011;7445;50.774;4.944;2023-07-13T15:18:39;2.40;;;2.05;;
14708;SDS011;7445;50.774;4.944;2023-07-13T15:21:08;3.33;;;1.85;;
14708;SDS011;7445;50.774;4.944;2023-07-13T15:23:35;1.65;;;1.55;;
14708;SDS011;7445;50.774;4.944;2023-07-13T15:26:01;10.23;;;2.42;;
14708;SDS011;7445;50.774;4.944;2023-07-13T15:28:28;2.40;;;2.20;;
14708;SDS011;7445;50.774;4.944;2023-07-13T15:30:54;5.50;;;2.05;;
14708;SDS011;7445;50.774;4.944;2023-07-13T15:33:24;2.88;;;1.85;;
14708;SDS011;7445;50.774;4.944;2023-07-13T15:35:53;2.67;;;1.90;;
14708;SDS011;7445;50.774;4.944;2023-07-13T15:38:23;3.08;;;2.25;;
14708;SDS011;7445;50.774;4.944;2023-07-13T15:40:51;10.95;;;2.58;;
14708;SDS011;7445;50.774;4.944;2023-07-13T15:43:17;7.45;;;2.22;;
14708;SDS011;7445;50.774;4.944;2023-07-13T15:45:44;1.55;;;1.42;;
14708;SDS011;7445;50.774;4.944;2023-07-13T15:48:19;4.15;;;1.83;;
14708;SDS011;7445;50.774;4.944;2023-07-13T15:50:48;3.50;;;1.88;;
14708;SDS011;7445;50.774;4.944;2023-07-13T15:53:23;3.10;;;2.13;;
14708;SDS011;7445;50.774;4.944;2023-07-13T15:55:50;4.35;;;1.80;;
14708;SDS011;7445;50.774;4.944;2023-07-13T15:58:17;3.88;;;2.08;;
14708;SDS011;7445;50.774;4.944;2023-07-13T16:00:43;4.05;;;2.30;;
14708;SDS011;7445;50.774;4.944;2023-07-13T16:03:09;2.15;;;1.58;;
14708;SDS011;7445;50.774;4.944;2023-07-13T16:05:35;2.60;;;1.75;;
14708;SDS011;7445;50.774;4.944;2023-07-13T16:08:02;2.72;;;1.75;;
14708;SDS011;7445;50.774;4.944;2023-07-13T16:10:31;3.15;;;1.83;;
14708;SDS011;7445;50.774;4.944;2023-07-13T16:13:05;3.25;;;2.13;;
14708;SDS011;7445;50.774;4.944;2023-07-13T16:15:39;3.38;;;2.30;;
14708;SDS011;7445;50.774;4.944;2023-07-13T16:18:09;5.78;;;1.95;;
14708;SDS011;7445;50.774;4.944;2023-07-13T16:20:36;3.90;;;2.03;;
14708;SDS011;7445;50.774;4.944;2023-07-13T16:23:03;4.63;;;1.75;;
14708;SDS011;7445;50.774;4.944;2023-07-13T16:25:29;2.78;;;2.20;;
14708;SDS011;7445;50.774;4.944;2023-07-13T16:27:55;2.88;;;1.70;;
14708;SDS011;7445;50.774;4.944;2023-07-13T16:30:28;2.58;;;1.95;;
14708;SDS011;7445;50.774;4.944;2023-07-13T16:32:56;4.60;;;2.25;;
14708;SDS011;7445;50.774;4.944;2023-07-13T16:35:29;2.08;;;1.98;;
14708;SDS011;7445;50.774;4.944;2023-07-13T16:37:59;3.08;;;2.35;;
14708;SDS011;7445;50.774;4.944;2023-07-13T16:40:31;3.25;;;2.05;;
14708;SDS011;7445;50.774;4.944;2023-07-13T16:42:59;2.50;;;1.98;;
14708;SDS011;7445;50.774;4.944;2023-07-13T16:45:29;3.33;;;2.40;;
14708;SDS011;7445;50.774;4.944;2023-07-13T16:47:59;4.55;;;2.17;;
14708;SDS011;7445;50.774;4.944;2023-07-13T16:50:31;3.53;;;2.40;;
14708;SDS011;7445;50.774;4.944;2023-07-13T16:52:58;5.63;;;2.45;;
14708;SDS011;7445;50.774;4.944;2023-07-13T16:55:25;8.35;;;2.13;;
14708;SDS011;7445;50.774;4.944;2023-07-13T16:57:52;3.63;;;2.35;;
14708;SDS011;7445;50.774;4.944;2023-07-13T17:00:20;2.55;;;2.22;;
14708;SDS011;7445;50.774;4.944;2023-07-13T17:02:52;3.47;;;2.25;;
14708;SDS011;7445;50.774;4.944;2023-07-13T17:05:40;4.28;;;2.78;;
14708;SDS011;7445;50.774;4.944;2023-07-13T17:08:25;2.90;;;2.20;;
14708;SDS011;7445;50.774;4.944;2023-07-13T17:10:55;3.50;;;2.20;;
14708;SDS011;7445;50.774;4.944;2023-07-13T17:13:26;4.45;;;2.13;;
14708;SDS011;7445;50.774;4.944;2023-07-13T17:15:54;2.50;;;2.30;;
14708;SDS011;7445;50.774;4.944;2023-07-13T17:18:23;3.30;;;2.40;;
14708;SDS011;7445;50.774;4.944;2023-07-13T17:20:51;3.55;;;2.60;;
14708;SDS011;7445;50.774;4.944;2023-07-13T17:23:21;2.60;;;2.03;;
14708;SDS011;7445;50.774;4.944;2023-07-13T17:25:49;3.40;;;2.55;;
14708;SDS011;7445;50.774;4.944;2023-07-13T17:28:17;2.97;;;2.38;;
14708;SDS011;7445;50.774;4.944;2023-07-13T17:30:46;2.72;;;2.53;;
14708;SDS011;7445;50.774;4.944;2023-07-13T17:33:29;6.20;;;2.05;;
14708;SDS011;7445;50.774;4.944;2023-07-13T17:36:05;2.35;;;2.08;;
14708;SDS011;7445;50.774;4.944;2023-07-13T17:41:05;4.47;;;2.40;;
14708;SDS011;7445;50.774;4.944;2023-07-13T17:43:36;2.08;;;1.88;;
14708;SDS011;7445;50.774;4.944;2023-07-13T17:46:15;4.55;;;2.47;;
14708;SDS011;7445;50.774;4.944;2023-07-13T17:48:54;2.75;;;2.45;;
14708;SDS011;7445;50.774;4.944;2023-07-13T17:51:19;7.30;;;2.85;;
14708;SDS011;7445;50.774;4.944;2023-07-13T17:53:47;3.80;;;2.95;;
14708;SDS011;7445;50.774;4.944;2023-07-13T17:56:14;5.70;;;3.45;;
14708;SDS011;7445;50.774;4.944;2023-07-13T17:58:41;4.35;;;2.50;;
14708;SDS011;7445;50.774;4.944;2023-07-13T18:01:11;2.33;;;2.10;;
14708;SDS011;7445;50.774;4.944;2023-07-13T18:03:40;2.47;;;2.28;;
14708;SDS011;7445;50.774;4.944;2023-07-13T18:06:17;3.55;;;2.33;;
14708;SDS011;7445;50.774;4.944;2023-07-13T18:09:00;4.28;;;2.47;;
14708;SDS011;7445;50.774;4.944;2023-07-13T18:11:28;3.80;;;2.35;;
14708;SDS011;7445;50.774;4.944;2023-07-13T18:13:54;6.75;;;2.90;;
14708;SDS011;7445;50.774;4.944;2023-07-13T18:16:24;2.35;;;2.15;;
14708;SDS011;7445;50.774;4.944;2023-07-13T18:18:54;2.58;;;2.20;;
14708;SDS011;7445;50.774;4.944;2023-07-13T18:21:21;3.88;;;3.00;;
14708;SDS011;7445;50.774;4.944;2023-07-13T18:23:48;3.10;;;2.80;;
14708;SDS011;7445;50.774;4.944;2023-07-13T18:26:15;5.47;;;3.05;;
14708;SDS011;7445;50.774;4.944;2023-07-13T18:28:46;2.83;;;2.30;;
14708;SDS011;7445;50.774;4.944;2023-07-13T18:31:20;3.83;;;2.42;;
14708;SDS011;7445;50.774;4.944;2023-07-13T18:33:48;3.15;;;2.90;;
14708;SDS011;7445;50.774;4.944;2023-07-13T18:36:18;2.85;;;2.03;;
14708;SDS011;7445;50.774;4.944;2023-07-13T18:38:44;5.90;;;3.03;;
14708;SDS011;7445;50.774;4.944;2023-07-13T18:41:11;4.68;;;3.00;;
14708;SDS011;7445;50.774;4.944;2023-07-13T18:43:38;2.50;;;2.30;;
14708;SDS011;7445;50.774;4.944;2023-07-13T18:46:16;4.10;;;2.03;;
14708;SDS011;7445;50.774;4.944;2023-07-13T18:48:52;4.32;;;2.30;;
14708;SDS011;7445;50.774;4.944;2023-07-13T18:51:18;4.80;;;3.00;;
14708;SDS011;7445;50.774;4.944;2023-07-13T18:53:46;3.05;;;2.00;;
14708;SDS011;7445;50.774;4.944;2023-07-13T18:56:12;4.22;;;2.58;;
14708;SDS011;7445;50.774;4.944;2023-07-13T18:58:38;3.33;;;2.20;;
14708;SDS011;7445;50.774;4.944;2023-07-13T19:01:05;4.68;;;2.28;;
14708;SDS011;7445;50.774;4.944;2023-07-13T19:03:43;4.55;;;2.38;;
14708;SDS011;7445;50.774;4.944;2023-07-13T19:06:09;4.10;;;2.75;;
14708;SDS011;7445;50.774;4.944;2023-07-13T19:08:37;6.82;;;2.60;;
14708;SDS011;7445;50.774;4.944;2023-07-13T19:11:10;5.57;;;2.55;;
14708;SDS011;7445;50.774;4.944;2023-07-13T19:13:39;6.55;;;2.85;;
14708;SDS011;7445;50.774;4.944;2023-07-13T19:16:07;8.60;;;3.05;;
14708;SDS011;7445;50.774;4.944;2023-07-13T19:18:35;2.78;;;2.30;;
14708;SDS011;7445;50.774;4.944;2023-07-13T19:21:01;5.30;;;2.70;;
14708;SDS011;7445;50.774;4.944;2023-07-13T19:23:50;6.78;;;3.35;;
14708;SDS011;7445;50.774;4.944;2023-07-13T19:26:20;3.60;;;1.98;;
14708;SDS011;7445;50.774;4.944;2023-07-13T19:28:50;4.35;;;2.67;;
14708;SDS011;7445;50.774;4.944;2023-07-13T19:31:19;4.80;;;2.65;;
14708;SDS011;7445;50.774;4.944;2023-07-13T19:33:48;4.50;;;2.75;;
14708;SDS011;7445;50.774;4.944;2023-07-13T19:36:18;3.58;;;2.22;;
14708;SDS011;7445;50.774;4.944;2023-07-13T19:38:45;3.80;;;2.30;;
14708;SDS011;7445;50.774;4.944;2023-07-13T19:41:15;5.82;;;3.15;;
14708;SDS011;7445;50.774;4.944;2023-07-13T19:43:43;4.63;;;2.15;;
14708;SDS011;7445;50.774;4.944;2023-07-13T19:49:04;6.40;;;3.30;;
14708;SDS011;7445;50.774;4.944;2023-07-13T19:51:31;2.05;;;1.92;;
14708;SDS011;7445;50.774;4.944;2023-07-13T19:54:01;4.80;;;2.58;;
14708;SDS011;7445;50.774;4.944;2023-07-13T19:56:35;2.92;;;2.63;;
14708;SDS011;7445;50.774;4.944;2023-07-13T19:59:08;3.20;;;2.65;;
14708;SDS011;7445;50.774;4.944;2023-07-13T20:01:40;4.32;;;2.70;;
14708;SDS011;7445;50.774;4.944;2023-07-13T20:04:06;5.47;;;2.42;;
14708;SDS011;7445;50.774;4.944;2023-07-13T20:06:32;3.22;;;2.65;;
14708;SDS011;7445;50.774;4.944;2023-07-13T20:08:59;3.65;;;2.53;;
14708;SDS011;7445;50.774;4.944;2023-07-13T20:11:26;8.25;;;3.42;;
14708;SDS011;7445;50.774;4.944;2023-07-13T20:13:52;5.60;;;2.42;;
14708;SDS011;7445;50.774;4.944;2023-07-13T20:16:18;3.28;;;2.97;;
14708;SDS011;7445;50.774;4.944;2023-07-13T20:18:45;5.05;;;2.58;;
14708;SDS011;7445;50.774;4.944;2023-07-13T20:21:12;4.32;;;2.70;;
14708;SDS011;7445;50.774;4.944;2023-07-13T20:23:39;6.50;;;2.55;;
14708;SDS011;7445;50.774;4.944;2023-07-13T20:26:07;4.70;;;3.03;;
14708;SDS011;7445;50.774;4.944;2023-07-13T20:28:33;4.40;;;2.42;;
14708;SDS011;7445;50.774;4.944;2023-07-13T20:30:59;10.07;;;3.20;;
14708;SDS011;7445;50.774;4.944;2023-07-13T20:33:27;3.85;;;2.30;;
14708;SDS011;7445;50.774;4.944;2023-07-13T20:35:55;6.53;;;2.87;;
14708;SDS011;7445;50.774;4.944;2023-07-13T20:38:26;2.77;;;2.57;;
14708;SDS011;7445;50.774;4.944;2023-07-13T20:40:52;2.70;;;2.40;;
14708;SDS011;7445;50.774;4.944;2023-07-13T20:43:18;6.27;;;3.10;;
14708;SDS011;7445;50.774;4.944;2023-07-13T20:45:45;2.53;;;2.17;;
14708;SDS011;7445;50.774;4.944;2023-07-13T20:48:18;4.10;;;2.63;;
14708;SDS011;7445;50.774;4.944;2023-07-13T20:50:49;3.53;;;2.50;;
14708;SDS011;7445;50.774;4.944;2023-07-13T20:53:16;4.43;;;2.20;;
14708;SDS011;7445;50.774;4.944;2023-07-13T20:55:42;4.17;;;3.03;;
14708;SDS011;7445;50.774;4.944;2023-07-13T20:58:08;2.53;;;1.97;;
14708;SDS011;7445;50.774;4.944;2023-07-13T21:00:35;4.03;;;2.10;;
14708;SDS011;7445;50.774;4.944;2023-07-13T21:03:06;3.17;;;2.53;;
14708;SDS011;7445;50.774;4.944;2023-07-13T21:05:40;2.90;;;2.08;;
14708;SDS011;7445;50.774;4.944;2023-07-13T21:08:10;2.47;;;2.28;;
14708;SDS011;7445;50.774;4.944;2023-07-13T21:10:37;2.97;;;2.50;;
14708;SDS011;7445;50.774;4.944;2023-07-13T21:13:03;6.70;;;3.03;;
14708;SDS011;7445;50.774;4.944;2023-07-13T21:15:32;2.30;;;1.70;;
14708;SDS011;7445;50.774;4.944;2023-07-13T21:17:59;2.20;;;1.33;;
14708;SDS011;7445;50.774;4.944;2023-07-13T21:20:30;2.10;;;1.88;;
14708;SDS011;7445;50.774;4.944;2023-07-13T21:23:11;3.17;;;1.95;;
14708;SDS011;7445;50.774;4.944;2023-07-13T21:26:00;3.00;;;2.13;;
14708;SDS011;7445;50.774;4.944;2023-07-13T21:28:29;1.92;;;1.67;;
14708;SDS011;7445;50.774;4.944;2023-07-13T21:30:59;6.60;;;2.67;;
14708;SDS011;7445;50.774;4.944;2023-07-13T21:33:28;4.00;;;2.30;;
14708;SDS011;7445;50.774;4.944;2023-07-13T21:35:54;3.07;;;2.20;;
14708;SDS011;7445;50.774;4.944;2023-07-13T21:38:21;1.67;;;1.57;;
14708;SDS011;7445;50.774;4.944;2023-07-13T21:40:56;4.23;;;2.07;;
